sensor_id;sensor_type;location;lat;lon;timestamp;pressure;altitude;pressure_sealevel;temperature;humidity
76858;BME280;65830;0.000;0.000;2023-11-22T00:01:30;99136.56;;;8.55;78.83
76858;BME280;65830;0.000;0.000;2023-11-22T00:03:55;99144.91;;;8.60;78.07
76858;BME280;65830;0.000;0.000;2023-11-22T00:06:21;99148.28;;;8.62;77.59
76858;BME280;65830;0.000;0.000;2023-11-22T00:08:47;99141.16;;;8.72;77.37
76858;BME280;65830;0.000;0.000;2023-11-22T00:11:12;99130.84;;;8.60;76.62
76858;BME280;65830;0.000;0.000;2023-11-22T00:13:39;99136.00;;;8.51;76.79
76858;BME280;65830;0.000;0.000;2023-11-22T00:16:04;99130.44;;;8.54;77.00
76858;BME280;65830;0.000;0.000;2023-11-22T00:18:30;99130.72;;;8.61;76.60
76858;BME280;65830;0.000;0.000;2023-11-22T00:20:56;99143.25;;;8.59;77.02
76858;BME280;65830;0.000;0.000;2023-11-22T00:23:22;99135.44;;;8.48;77.65
76858;BME280;65830;0.000;0.000;2023-11-22T00:25:53;99122.91;;;8.50;77.80
76858;BME280;65830;0.000;0.000;2023-11-22T00:28:18;99114.97;;;8.50;77.68
76858;BME280;65830;0.000;0.000;2023-11-22T00:30:43;99117.38;;;8.53;77.13
76858;BME280;65830;0.000;0.000;2023-11-22T00:33:09;99133.50;;;8.50;76.93
76858;BME280;65830;0.000;0.000;2023-11-22T00:35:35;99137.25;;;8.47;76.84
76858;BME280;65830;0.000;0.000;2023-11-22T00:38:01;99141.28;;;8.51;76.48
76858;BME280;65830;0.000;0.000;2023-11-22T00:40:26;99126.00;;;8.55;75.99
76858;BME280;65830;0.000;0.000;2023-11-22T00:42:52;99125.03;;;8.46;76.10
76858;BME280;65830;0.000;0.000;2023-11-22T00:45:17;99131.84;;;8.49;76.27
76858;BME280;65830;0.000;0.000;2023-11-22T00:47:44;99120.28;;;8.50;76.42
76858;BME280;65830;0.000;0.000;2023-11-22T00:50:09;99120.56;;;8.47;76.57
76858;BME280;65830;0.000;0.000;2023-11-22T00:52:35;99114.59;;;8.45;76.91
76858;BME280;65830;0.000;0.000;2023-11-22T00:55:00;99113.16;;;8.41;77.06
76858;BME280;65830;0.000;0.000;2023-11-22T00:57:26;99121.53;;;8.46;77.11
76858;BME280;65830;0.000;0.000;2023-11-22T00:59:55;99138.78;;;8.60;76.53
76858;BME280;65830;0.000;0.000;2023-11-22T01:02:21;99126.13;;;8.63;75.98
76858;BME280;65830;0.000;0.000;2023-11-22T01:04:48;99117.38;;;8.63;75.58
76858;BME280;65830;0.000;0.000;2023-11-22T01:07:13;99118.75;;;8.67;75.36
76858;BME280;65830;0.000;0.000;2023-11-22T01:09:39;99114.16;;;8.69;74.67
76858;BME280;65830;0.000;0.000;2023-11-22T01:12:05;99101.88;;;8.78;74.71
76858;BME280;65830;0.000;0.000;2023-11-22T01:14:31;99115.25;;;8.86;74.11
76858;BME280;65830;0.000;0.000;2023-11-22T01:16:57;99110.50;;;8.89;73.92
76858;BME280;65830;0.000;0.000;2023-11-22T01:19:23;99102.00;;;8.86;73.63
76858;BME280;65830;0.000;0.000;2023-11-22T01:21:48;99107.72;;;8.91;73.49
76858;BME280;65830;0.000;0.000;2023-11-22T01:24:14;99109.09;;;8.95;73.39
76858;BME280;65830;0.000;0.000;2023-11-22T01:26:39;99112.56;;;8.95;73.29
76858;BME280;65830;0.000;0.000;2023-11-22T01:29:05;99105.34;;;8.88;73.54
76858;BME280;65830;0.000;0.000;2023-11-22T01:31:31;99108.72;;;8.80;73.68
76858;BME280;65830;0.000;0.000;2023-11-22T01:33:58;99104.84;;;8.74;74.19
76858;BME280;65830;0.000;0.000;2023-11-22T01:36:24;99107.47;;;8.74;74.05
76858;BME280;65830;0.000;0.000;2023-11-22T01:38:51;99104.53;;;8.78;73.82
76858;BME280;65830;0.000;0.000;2023-11-22T01:41:17;99096.72;;;8.86;73.82
76858;BME280;65830;0.000;0.000;2023-11-22T01:43:43;99095.31;;;8.91;73.46
76858;BME280;65830;0.000;0.000;2023-11-22T01:46:08;99090.31;;;8.98;73.34
76858;BME280;65830;0.000;0.000;2023-11-22T01:48:35;99094.75;;;8.98;73.50
76858;BME280;65830;0.000;0.000;2023-11-22T01:51:03;99098.94;;;9.00;73.53
76858;BME280;65830;0.000;0.000;2023-11-22T01:53:28;99092.78;;;9.00;73.30
76858;BME280;65830;0.000;0.000;2023-11-22T01:55:55;99100.91;;;8.98;73.77
76858;BME280;65830;0.000;0.000;2023-11-22T01:58:21;99081.13;;;9.02;73.48
76858;BME280;65830;0.000;0.000;2023-11-22T02:00:49;99080.13;;;9.03;73.18
76858;BME280;65830;0.000;0.000;2023-11-22T02:03:15;99086.69;;;8.89;73.68
76858;BME280;65830;0.000;0.000;2023-11-22T02:05:41;99083.91;;;8.91;73.89
76858;BME280;65830;0.000;0.000;2023-11-22T02:08:10;99080.31;;;8.82;74.54
76858;BME280;65830;0.000;0.000;2023-11-22T02:10:36;99081.28;;;8.81;74.75
76858;BME280;65830;0.000;0.000;2023-11-22T02:13:02;99078.38;;;8.74;75.20
76858;BME280;65830;0.000;0.000;2023-11-22T02:15:30;99079.75;;;8.79;75.21
76858;BME280;65830;0.000;0.000;2023-11-22T02:17:56;99082.53;;;8.87;74.85
76858;BME280;65830;0.000;0.000;2023-11-22T02:20:22;99090.34;;;8.88;75.27
76858;BME280;65830;0.000;0.000;2023-11-22T02:22:48;99097.03;;;8.73;75.72
76858;BME280;65830;0.000;0.000;2023-11-22T02:25:13;99086.72;;;8.80;75.66
76858;BME280;65830;0.000;0.000;2023-11-22T02:27:40;99080.59;;;8.79;75.66
76858;BME280;65830;0.000;0.000;2023-11-22T02:30:06;99063.31;;;8.85;75.78
76858;BME280;65830;0.000;0.000;2023-11-22T02:32:32;99073.59;;;8.88;75.97
76858;BME280;65830;0.000;0.000;2023-11-22T02:34:58;99076.00;;;8.81;76.08
76858;BME280;65830;0.000;0.000;2023-11-22T02:37:24;99075.16;;;8.81;76.27
76858;BME280;65830;0.000;0.000;2023-11-22T02:40:23;99076.97;;;8.80;76.30
76858;BME280;65830;0.000;0.000;2023-11-22T02:42:43;99078.25;;;8.76;76.48
76858;BME280;65830;0.000;0.000;2023-11-22T02:45:08;99081.97;;;8.73;76.69
76858;BME280;65830;0.000;0.000;2023-11-22T02:47:34;99080.03;;;8.75;76.98
76858;BME280;65830;0.000;0.000;2023-11-22T02:50:01;99069.31;;;8.77;77.12
76858;BME280;65830;0.000;0.000;2023-11-22T02:52:26;99072.78;;;8.78;76.65
76858;BME280;65830;0.000;0.000;2023-11-22T02:54:52;99078.09;;;8.78;76.65
76858;BME280;65830;0.000;0.000;2023-11-22T02:57:17;99077.25;;;8.77;76.56
76858;BME280;65830;0.000;0.000;2023-11-22T02:59:43;99083.09;;;8.81;76.43
76858;BME280;65830;0.000;0.000;2023-11-22T03:02:09;99084.75;;;8.82;76.75
76858;BME280;65830;0.000;0.000;2023-11-22T03:04:34;99093.38;;;8.84;76.36
76858;BME280;65830;0.000;0.000;2023-11-22T03:07:00;99097.03;;;8.83;76.03
76858;BME280;65830;0.000;0.000;2023-11-22T03:09:26;99089.78;;;8.85;76.69
76858;BME280;65830;0.000;0.000;2023-11-22T03:11:51;99093.38;;;8.84;77.03
76858;BME280;65830;0.000;0.000;2023-11-22T03:14:18;99086.81;;;8.88;77.37
76858;BME280;65830;0.000;0.000;2023-11-22T03:16:44;99073.59;;;8.88;77.22
76858;BME280;65830;0.000;0.000;2023-11-22T03:19:10;99079.34;;;8.73;77.75
76858;BME280;65830;0.000;0.000;2023-11-22T03:21:36;99072.22;;;8.74;77.75
76858;BME280;65830;0.000;0.000;2023-11-22T03:24:02;99066.66;;;8.77;77.78
76858;BME280;65830;0.000;0.000;2023-11-22T03:26:29;99051.34;;;8.81;78.04
76858;BME280;65830;0.000;0.000;2023-11-22T03:28:55;99042.44;;;8.82;78.21
76858;BME280;65830;0.000;0.000;2023-11-22T03:31:20;99034.22;;;8.85;77.81
76858;BME280;65830;0.000;0.000;2023-11-22T03:33:46;99034.59;;;8.90;77.71
76858;BME280;65830;0.000;0.000;2023-11-22T03:36:12;99033.50;;;8.92;78.13
76858;BME280;65830;0.000;0.000;2023-11-22T03:38:38;99037.13;;;8.91;78.01
76858;BME280;65830;0.000;0.000;2023-11-22T03:41:04;99053.53;;;8.95;77.94
76858;BME280;65830;0.000;0.000;2023-11-22T03:43:31;99063.31;;;8.85;77.54
76858;BME280;65830;0.000;0.000;2023-11-22T03:45:57;99070.03;;;8.69;78.73
76858;BME280;65830;0.000;0.000;2023-11-22T03:48:22;99079.34;;;8.73;78.75
76858;BME280;65830;0.000;0.000;2023-11-22T03:50:49;99082.69;;;8.75;78.96
76858;BME280;65830;0.000;0.000;2023-11-22T03:53:14;99086.44;;;8.73;78.87
76858;BME280;65830;0.000;0.000;2023-11-22T03:55:40;99077.38;;;8.75;79.08
76858;BME280;65830;0.000;0.000;2023-11-22T03:58:06;99073.47;;;8.80;78.97
76858;BME280;65830;0.000;0.000;2023-11-22T04:00:33;99072.53;;;8.81;78.97
76858;BME280;65830;0.000;0.000;2023-11-22T04:02:58;99076.13;;;8.80;79.00
76858;BME280;65830;0.000;0.000;2023-11-22T04:05:27;99076.81;;;8.82;78.70
76858;BME280;65830;0.000;0.000;2023-11-22T04:07:52;99083.66;;;8.84;78.65
76858;BME280;65830;0.000;0.000;2023-11-22T04:10:18;99081.72;;;8.77;79.14
76858;BME280;65830;0.000;0.000;2023-11-22T04:12:44;99094.81;;;8.78;79.13
76858;BME280;65830;0.000;0.000;2023-11-22T04:15:11;99092.00;;;8.80;79.15
76858;BME280;65830;0.000;0.000;2023-11-22T04:17:36;99102.88;;;8.77;79.13
76858;BME280;65830;0.000;0.000;2023-11-22T04:20:04;99091.72;;;8.83;79.20
76858;BME280;65830;0.000;0.000;2023-11-22T04:22:34;99082.09;;;8.82;79.01
76858;BME280;65830;0.000;0.000;2023-11-22T04:24:59;99081.16;;;8.83;79.03
76858;BME280;65830;0.000;0.000;2023-11-22T04:27:26;99084.75;;;8.91;79.78
76858;BME280;65830;0.000;0.000;2023-11-22T04:29:51;99080.56;;;8.89;78.60
76858;BME280;65830;0.000;0.000;2023-11-22T04:32:17;99095.34;;;8.82;78.76
76858;BME280;65830;0.000;0.000;2023-11-22T04:34:42;99102.88;;;8.77;79.35
76858;BME280;65830;0.000;0.000;2023-11-22T04:37:08;99105.38;;;8.78;79.34
76858;BME280;65830;0.000;0.000;2023-11-22T04:39:33;99119.84;;;8.74;79.08
76858;BME280;65830;0.000;0.000;2023-11-22T04:41:59;99106.78;;;8.72;79.55
76858;BME280;65830;0.000;0.000;2023-11-22T04:44:25;99102.56;;;8.80;79.71
76858;BME280;65830;0.000;0.000;2023-11-22T04:46:51;99105.91;;;8.82;79.38
76858;BME280;65830;0.000;0.000;2023-11-22T04:49:17;99120.97;;;8.81;78.78
76858;BME280;65830;0.000;0.000;2023-11-22T04:51:42;99129.72;;;8.82;78.53
76858;BME280;65830;0.000;0.000;2023-11-22T04:54:09;99144.63;;;8.83;78.21
76858;BME280;65830;0.000;0.000;2023-11-22T04:56:35;99160.78;;;8.80;77.86
76858;BME280;65830;0.000;0.000;2023-11-22T04:59:00;99150.50;;;8.77;78.08
76858;BME280;65830;0.000;0.000;2023-11-22T05:01:31;99155.09;;;8.74;77.54
76858;BME280;65830;0.000;0.000;2023-11-22T05:03:56;99161.06;;;8.77;77.52
76858;BME280;65830;0.000;0.000;2023-11-22T05:06:22;99167.06;;;8.79;77.04
76858;BME280;65830;0.000;0.000;2023-11-22T05:08:47;99164.81;;;8.74;77.37
76858;BME280;65830;0.000;0.000;2023-11-22T05:11:13;99187.22;;;8.80;76.65
76858;BME280;65830;0.000;0.000;2023-11-22T05:13:41;99191.97;;;8.76;76.57
76858;BME280;65830;0.000;0.000;2023-11-22T05:16:08;99181.41;;;8.76;77.08
76858;BME280;65830;0.000;0.000;2023-11-22T05:18:34;99193.63;;;8.77;76.86
76858;BME280;65830;0.000;0.000;2023-11-22T05:21:01;99194.06;;;8.72;77.16
76858;BME280;65830;0.000;0.000;2023-11-22T05:23:28;99190.16;;;8.77;77.29
76858;BME280;65830;0.000;0.000;2023-11-22T05:25:54;99186.69;;;8.76;77.64
76858;BME280;65830;0.000;0.000;2023-11-22T05:28:19;99182.09;;;8.78;77.83
76858;BME280;65830;0.000;0.000;2023-11-22T05:30:45;99176.94;;;8.77;78.29
76858;BME280;65830;0.000;0.000;2023-11-22T05:33:11;99176.81;;;8.78;78.69
76858;BME280;65830;0.000;0.000;2023-11-22T05:35:36;99190.16;;;8.77;78.79
76858;BME280;65830;0.000;0.000;2023-11-22T05:38:02;99201.72;;;8.75;79.02
76858;BME280;65830;0.000;0.000;2023-11-22T05:40:27;99205.34;;;8.74;79.03
76858;BME280;65830;0.000;0.000;2023-11-22T05:42:53;99205.91;;;8.78;78.97
76858;BME280;65830;0.000;0.000;2023-11-22T05:45:18;99211.47;;;8.85;78.74
76858;BME280;65830;0.000;0.000;2023-11-22T05:47:44;99217.31;;;8.88;78.50
76858;BME280;65830;0.000;0.000;2023-11-22T05:50:10;99219.53;;;8.83;79.03
76858;BME280;65830;0.000;0.000;2023-11-22T05:52:35;99227.78;;;8.80;79.14
76858;BME280;65830;0.000;0.000;2023-11-22T05:55:01;99241.25;;;8.87;79.06
76858;BME280;65830;0.000;0.000;2023-11-22T05:57:30;99242.53;;;8.83;78.35
76858;BME280;65830;0.000;0.000;2023-11-22T05:59:56;99238.75;;;8.85;78.64
76858;BME280;65830;0.000;0.000;2023-11-22T06:02:22;99237.09;;;8.84;78.56
76858;BME280;65830;0.000;0.000;2023-11-22T06:04:47;99234.59;;;8.83;78.85
76858;BME280;65830;0.000;0.000;2023-11-22T06:07:13;99241.41;;;8.85;78.36
76858;BME280;65830;0.000;0.000;2023-11-22T06:09:38;99239.44;;;8.87;78.68
76858;BME280;65830;0.000;0.000;2023-11-22T06:12:04;99236.66;;;8.89;78.81
76858;BME280;65830;0.000;0.000;2023-11-22T06:14:29;99235.84;;;8.98;78.41
76858;BME280;65830;0.000;0.000;2023-11-22T06:16:55;99217.31;;;9.08;78.44
76858;BME280;65830;0.000;0.000;2023-11-22T06:19:20;99225.41;;;9.06;78.63
76858;BME280;65830;0.000;0.000;2023-11-22T06:21:46;99233.59;;;9.03;79.10
76858;BME280;65830;0.000;0.000;2023-11-22T06:24:11;99224.97;;;9.01;79.67
76858;BME280;65830;0.000;0.000;2023-11-22T06:26:44;99221.50;;;9.01;80.12
76858;BME280;65830;0.000;0.000;2023-11-22T06:29:11;99234.84;;;8.99;80.39
76858;BME280;65830;0.000;0.000;2023-11-22T06:31:37;99239.88;;;9.02;80.72
76858;BME280;65830;0.000;0.000;2023-11-22T06:34:02;99257.56;;;9.02;81.44
76858;BME280;65830;0.000;0.000;2023-11-22T06:36:28;99255.34;;;9.07;81.73
76858;BME280;65830;0.000;0.000;2023-11-22T06:38:55;99254.22;;;9.09;82.39
76858;BME280;65830;0.000;0.000;2023-11-22T06:41:20;99262.16;;;9.09;82.21
76858;BME280;65830;0.000;0.000;2023-11-22T06:43:47;99279.16;;;9.07;82.72
76858;BME280;65830;0.000;0.000;2023-11-22T06:46:12;99272.47;;;9.03;83.38
76858;BME280;65830;0.000;0.000;2023-11-22T06:48:38;99276.06;;;9.02;83.99
76858;BME280;65830;0.000;0.000;2023-11-22T06:51:04;99291.13;;;9.01;84.51
76858;BME280;65830;0.000;0.000;2023-11-22T06:53:29;99284.31;;;9.08;84.57
76858;BME280;65830;0.000;0.000;2023-11-22T06:55:55;99283.06;;;9.12;85.33
76858;BME280;65830;0.000;0.000;2023-11-22T06:58:21;99288.06;;;9.15;85.65
76858;BME280;65830;0.000;0.000;2023-11-22T07:00:46;99301.72;;;9.21;85.96
76858;BME280;65830;0.000;0.000;2023-11-22T07:03:12;99312.47;;;9.29;85.36
76858;BME280;65830;0.000;0.000;2023-11-22T07:05:37;99301.59;;;9.32;85.09
76858;BME280;65830;0.000;0.000;2023-11-22T07:08:03;99301.59;;;9.32;84.56
76858;BME280;65830;0.000;0.000;2023-11-22T07:10:29;99289.88;;;9.34;84.66
76858;BME280;65830;0.000;0.000;2023-11-22T07:12:59;99264.94;;;9.37;84.57
76858;BME280;65830;0.000;0.000;2023-11-22T07:15:27;99269.66;;;9.43;84.87
76858;BME280;65830;0.000;0.000;2023-11-22T07:17:52;99269.81;;;9.51;85.15
76858;BME280;65830;0.000;0.000;2023-11-22T07:20:19;99273.69;;;9.47;84.02
76858;BME280;65830;0.000;0.000;2023-11-22T07:22:45;99273.56;;;9.49;84.37
76858;BME280;65830;0.000;0.000;2023-11-22T07:25:11;99286.22;;;9.55;84.33
76858;BME280;65830;0.000;0.000;2023-11-22T07:27:50;99287.22;;;9.54;84.04
76858;BME280;65830;0.000;0.000;2023-11-22T07:30:16;99290.84;;;9.53;83.88
76858;BME280;65830;0.000;0.000;2023-11-22T07:32:49;99294.88;;;9.57;83.75
76858;BME280;65830;0.000;0.000;2023-11-22T07:35:15;99293.09;;;9.58;83.82
76858;BME280;65830;0.000;0.000;2023-11-22T07:37:40;99294.47;;;9.62;83.63
76858;BME280;65830;0.000;0.000;2023-11-22T07:40:08;99298.50;;;9.66;83.41
76858;BME280;65830;0.000;0.000;2023-11-22T07:42:35;99273.56;;;9.59;82.78
76858;BME280;65830;0.000;0.000;2023-11-22T07:45:00;99302.25;;;9.73;82.47
76858;BME280;65830;0.000;0.000;2023-11-22T07:47:27;99289.00;;;9.73;82.41
76858;BME280;65830;0.000;0.000;2023-11-22T07:49:53;99288.84;;;9.74;82.31
76858;BME280;65830;0.000;0.000;2023-11-22T07:52:21;99304.47;;;9.78;81.94
76858;BME280;65830;0.000;0.000;2023-11-22T07:54:46;99302.66;;;9.78;81.38
76858;BME280;65830;0.000;0.000;2023-11-22T07:57:12;99307.16;;;9.68;82.13
76858;BME280;65830;0.000;0.000;2023-11-22T07:59:38;99308.28;;;9.65;82.37
76858;BME280;65830;0.000;0.000;2023-11-22T08:02:04;99317.03;;;9.66;82.08
76858;BME280;65830;0.000;0.000;2023-11-22T08:04:36;99314.09;;;9.69;83.08
76858;BME280;65830;0.000;0.000;2023-11-22T08:07:01;99313.69;;;9.73;82.85
76858;BME280;65830;0.000;0.000;2023-11-22T08:09:27;99305.03;;;9.81;83.28
76858;BME280;65830;0.000;0.000;2023-11-22T08:11:58;99316.03;;;9.77;84.25
76858;BME280;65830;0.000;0.000;2023-11-22T08:14:24;99305.75;;;9.64;85.03
76858;BME280;65830;0.000;0.000;2023-11-22T08:16:53;99315.22;;;9.76;85.33
76858;BME280;65830;0.000;0.000;2023-11-22T08:19:18;99322.03;;;9.69;85.76
76858;BME280;65830;0.000;0.000;2023-11-22T08:21:44;99322.59;;;9.72;86.02
76858;BME280;65830;0.000;0.000;2023-11-22T08:24:09;99312.84;;;9.73;86.13
76858;BME280;65830;0.000;0.000;2023-11-22T08:26:38;99309.78;;;9.68;86.30
76858;BME280;65830;0.000;0.000;2023-11-22T08:29:04;99316.75;;;9.69;86.16
76858;BME280;65830;0.000;0.000;2023-11-22T08:31:30;99309.34;;;9.72;86.63
76858;BME280;65830;0.000;0.000;2023-11-22T08:33:56;99313.53;;;9.75;87.08
76858;BME280;65830;0.000;0.000;2023-11-22T08:36:22;99303.63;;;9.77;87.37
76858;BME280;65830;0.000;0.000;2023-11-22T08:38:48;99304.03;;;9.82;87.46
76858;BME280;65830;0.000;0.000;2023-11-22T08:41:14;99314.06;;;9.88;87.74
76858;BME280;65830;0.000;0.000;2023-11-22T08:43:40;99320.06;;;9.90;86.74
76858;BME280;65830;0.000;0.000;2023-11-22T08:46:06;99313.81;;;9.91;85.97
76858;BME280;65830;0.000;0.000;2023-11-22T08:48:34;99323.13;;;9.96;87.06
76858;BME280;65830;0.000;0.000;2023-11-22T08:51:00;99322.31;;;9.95;87.03
76858;BME280;65830;0.000;0.000;2023-11-22T08:53:26;99323.69;;;9.99;89.47
76858;BME280;65830;0.000;0.000;2023-11-22T08:55:52;99320.34;;;9.97;90.25
76858;BME280;65830;0.000;0.000;2023-11-22T08:58:19;99320.03;;;10.00;88.07
76858;BME280;65830;0.000;0.000;2023-11-22T09:00:45;99308.47;;;10.01;87.76
76858;BME280;65830;0.000;0.000;2023-11-22T09:03:11;99313.59;;;10.12;88.60
76858;BME280;65830;0.000;0.000;2023-11-22T09:05:41;99315.81;;;10.17;88.41
76858;BME280;65830;0.000;0.000;2023-11-22T09:08:08;99318.63;;;10.06;89.36
76858;BME280;65830;0.000;0.000;2023-11-22T09:10:38;99308.72;;;10.08;89.72
76858;BME280;65830;0.000;0.000;2023-11-22T09:13:04;99318.09;;;10.02;88.47
76858;BME280;65830;0.000;0.000;2023-11-22T09:15:31;99311.22;;;10.09;88.75
76858;BME280;65830;0.000;0.000;2023-11-22T09:17:58;99313.88;;;10.09;87.19
76858;BME280;65830;0.000;0.000;2023-11-22T09:20:24;99327.03;;;10.01;86.87
76858;BME280;65830;0.000;0.000;2023-11-22T09:22:53;99331.09;;;9.96;85.99
76858;BME280;65830;0.000;0.000;2023-11-22T09:25:20;99321.16;;;9.98;86.72
76858;BME280;65830;0.000;0.000;2023-11-22T09:27:46;99322.25;;;10.05;85.52
76858;BME280;65830;0.000;0.000;2023-11-22T09:30:13;99337.22;;;9.96;84.86
76858;BME280;65830;0.000;0.000;2023-11-22T09:35:29;99335.09;;;10.09;85.34
76858;BME280;65830;0.000;0.000;2023-11-22T09:37:58;99331.72;;;10.17;84.87
76858;BME280;65830;0.000;0.000;2023-11-22T09:40:24;99330.84;;;10.26;83.76
76858;BME280;65830;0.000;0.000;2023-11-22T09:42:52;99331.69;;;10.27;81.92
76858;BME280;65830;0.000;0.000;2023-11-22T09:45:19;99340.47;;;10.27;80.35
76858;BME280;65830;0.000;0.000;2023-11-22T09:47:44;99344.69;;;10.30;80.16
76858;BME280;65830;0.000;0.000;2023-11-22T09:50:11;99342.59;;;10.33;79.89
76858;BME280;65830;0.000;0.000;2023-11-22T09:52:42;99337.38;;;10.42;80.07
76858;BME280;65830;0.000;0.000;2023-11-22T09:55:09;99344.19;;;10.44;79.73
76858;BME280;65830;0.000;0.000;2023-11-22T09:57:35;99347.31;;;10.40;79.55
76858;BME280;65830;0.000;0.000;2023-11-22T10:00:02;99344.19;;;10.44;79.44
76858;BME280;65830;0.000;0.000;2023-11-22T10:02:34;99334.94;;;10.58;77.80
76858;BME280;65830;0.000;0.000;2023-11-22T10:05:00;99317.34;;;10.57;77.50
76858;BME280;65830;0.000;0.000;2023-11-22T10:07:26;99336.03;;;10.65;77.52
76858;BME280;65830;0.000;0.000;2023-11-22T10:09:52;99330.44;;;10.68;78.07
76858;BME280;65830;0.000;0.000;2023-11-22T10:12:21;99336.03;;;10.65;79.06
76858;BME280;65830;0.000;0.000;2023-11-22T10:14:47;99326.88;;;10.78;79.80
76858;BME280;65830;0.000;0.000;2023-11-22T10:17:12;99329.63;;;10.86;79.22
76858;BME280;65830;0.000;0.000;2023-11-22T10:19:40;99331.75;;;10.82;78.59
76858;BME280;65830;0.000;0.000;2023-11-22T10:22:06;99335.44;;;10.71;78.26
76858;BME280;65830;0.000;0.000;2023-11-22T10:24:32;99323.16;;;10.70;79.67
76858;BME280;65830;0.000;0.000;2023-11-22T10:26:59;99335.66;;;10.78;79.62
76858;BME280;65830;0.000;0.000;2023-11-22T10:29:25;99333.41;;;10.83;80.12
76858;BME280;65830;0.000;0.000;2023-11-22T10:31:50;99328.94;;;10.84;79.74
76858;BME280;65830;0.000;0.000;2023-11-22T10:34:19;99323.25;;;10.79;80.77
76858;BME280;65830;0.000;0.000;2023-11-22T10:36:45;99328.41;;;10.80;80.68
76858;BME280;65830;0.000;0.000;2023-11-22T10:39:10;99325.16;;;10.86;80.69
76858;BME280;65830;0.000;0.000;2023-11-22T10:41:41;99330.16;;;10.89;80.48
76858;BME280;65830;0.000;0.000;2023-11-22T10:44:07;99336.97;;;10.92;80.91
76858;BME280;65830;0.000;0.000;2023-11-22T10:46:33;99338.53;;;10.95;80.64
76858;BME280;65830;0.000;0.000;2023-11-22T10:48:59;99332.53;;;10.92;81.15
76858;BME280;65830;0.000;0.000;2023-11-22T10:51:26;99324.66;;;11.01;81.60
76858;BME280;65830;0.000;0.000;2023-11-22T10:53:55;99327.44;;;10.99;81.33
76858;BME280;65830;0.000;0.000;2023-11-22T10:56:21;99330.94;;;11.00;81.47
76858;BME280;65830;0.000;0.000;2023-11-22T10:58:48;99338.47;;;11.04;81.91
76858;BME280;65830;0.000;0.000;2023-11-22T11:01:17;99330.19;;;11.07;81.23
76858;BME280;65830;0.000;0.000;2023-11-22T11:03:45;99340.31;;;10.94;82.27
76858;BME280;65830;0.000;0.000;2023-11-22T11:06:14;99334.50;;;10.90;83.10
76858;BME280;65830;0.000;0.000;2023-11-22T11:08:40;99336.41;;;10.98;82.77
76858;BME280;65830;0.000;0.000;2023-11-22T11:11:07;99341.72;;;10.98;82.51
76858;BME280;65830;0.000;0.000;2023-11-22T11:13:32;99333.16;;;11.04;82.73
76858;BME280;65830;0.000;0.000;2023-11-22T11:15:58;99331.56;;;11.11;83.10
76858;BME280;65830;0.000;0.000;2023-11-22T11:18:24;99329.16;;;11.36;82.57
76858;BME280;65830;0.000;0.000;2023-11-22T11:20:57;99336.28;;;11.53;81.48
76858;BME280;65830;0.000;0.000;2023-11-22T11:23:24;99344.94;;;11.56;80.65
76858;BME280;65830;0.000;0.000;2023-11-22T11:25:50;99348.09;;;11.59;80.70
76858;BME280;65830;0.000;0.000;2023-11-22T11:28:17;99354.28;;;11.42;80.53
76858;BME280;65830;0.000;0.000;2023-11-22T11:30:43;99357.84;;;11.32;81.38
76858;BME280;65830;0.000;0.000;2023-11-22T11:33:10;99359.41;;;11.25;81.41
76858;BME280;65830;0.000;0.000;2023-11-22T11:35:38;99354.63;;;11.29;81.36
76858;BME280;65830;0.000;0.000;2023-11-22T11:38:04;99345.69;;;11.30;81.28
76858;BME280;65830;0.000;0.000;2023-11-22T11:40:33;99347.44;;;11.39;81.28
76858;BME280;65830;0.000;0.000;2023-11-22T11:42:59;99347.00;;;11.44;81.28
76858;BME280;65830;0.000;0.000;2023-11-22T11:45:26;99353.13;;;11.62;80.72
76858;BME280;65830;0.000;0.000;2023-11-22T11:47:52;99348.69;;;11.71;79.12
76858;BME280;65830;0.000;0.000;2023-11-22T11:50:17;99352.91;;;11.73;78.73
76858;BME280;65830;0.000;0.000;2023-11-22T11:52:43;99356.81;;;11.87;78.14
76858;BME280;65830;0.000;0.000;2023-11-22T11:55:09;99352.84;;;12.09;77.42
76858;BME280;65830;0.000;0.000;2023-11-22T11:57:35;99348.66;;;12.33;76.18
76858;BME280;65830;0.000;0.000;2023-11-22T12:00:02;99351.22;;;12.43;75.32
76858;BME280;65830;0.000;0.000;2023-11-22T12:02:36;99353.19;;;12.75;74.56
76858;BME280;65830;0.000;0.000;2023-11-22T12:05:02;99352.47;;;13.24;72.41
76858;BME280;65830;0.000;0.000;2023-11-22T12:07:34;99359.75;;;13.56;70.31
76858;BME280;65830;0.000;0.000;2023-11-22T12:10:00;99358.56;;;13.83;69.60
76858;BME280;65830;0.000;0.000;2023-11-22T12:12:25;99342.56;;;13.83;69.35
76858;BME280;65830;0.000;0.000;2023-11-22T12:14:51;99338.56;;;13.71;70.09
76858;BME280;65830;0.000;0.000;2023-11-22T12:17:16;99334.91;;;13.80;70.05
76858;BME280;65830;0.000;0.000;2023-11-22T12:19:43;99336.59;;;13.89;69.09
76858;BME280;65830;0.000;0.000;2023-11-22T12:22:08;99344.75;;;13.88;69.55
76858;BME280;65830;0.000;0.000;2023-11-22T12:24:35;99339.25;;;13.98;69.22
76858;BME280;65830;0.000;0.000;2023-11-22T12:27:00;99339.72;;;14.09;68.93
76858;BME280;65830;0.000;0.000;2023-11-22T12:29:26;99338.69;;;14.19;68.42
76858;BME280;65830;0.000;0.000;2023-11-22T12:31:51;99342.56;;;14.08;68.77
76858;BME280;65830;0.000;0.000;2023-11-22T12:34:22;99331.91;;;14.00;70.28
76858;BME280;65830;0.000;0.000;2023-11-22T12:36:48;99332.38;;;13.95;70.99
76858;BME280;65830;0.000;0.000;2023-11-22T12:39:14;99337.59;;;13.80;72.30
76858;BME280;65830;0.000;0.000;2023-11-22T12:41:46;99342.91;;;13.88;71.58
76858;BME280;65830;0.000;0.000;2023-11-22T12:44:12;99358.88;;;14.05;71.48
76858;BME280;65830;0.000;0.000;2023-11-22T12:46:48;99361.06;;;14.18;70.92
76858;BME280;65830;0.000;0.000;2023-11-22T12:49:15;99360.56;;;14.14;71.40
76858;BME280;65830;0.000;0.000;2023-11-22T12:51:54;99363.56;;;14.03;71.91
76858;BME280;65830;0.000;0.000;2023-11-22T12:54:20;99377.25;;;14.00;72.16
76858;BME280;65830;0.000;0.000;2023-11-22T12:56:50;99377.25;;;13.92;72.70
76858;BME280;65830;0.000;0.000;2023-11-22T12:59:24;99379.22;;;13.57;72.22
76858;BME280;65830;0.000;0.000;2023-11-22T13:01:53;99376.31;;;13.25;72.84
76858;BME280;65830;0.000;0.000;2023-11-22T13:04:19;99383.75;;;13.14;73.35
76858;BME280;65830;0.000;0.000;2023-11-22T13:06:45;99372.81;;;13.17;73.29
76858;BME280;65830;0.000;0.000;2023-11-22T13:09:10;99377.63;;;13.13;73.22
76858;BME280;65830;0.000;0.000;2023-11-22T13:11:40;99381.78;;;13.16;74.03
76858;BME280;65830;0.000;0.000;2023-11-22T13:14:06;99393.78;;;13.20;73.70
76858;BME280;65830;0.000;0.000;2023-11-22T13:16:32;99395.44;;;13.21;73.65